createdAt,value
2023-03-23T15:59:09.430Z,3.60
2023-03-23T16:01:57.098Z,3.10
2023-03-23T16:04:46.274Z,3.80
2023-03-23T16:07:34.263Z,4.30
2023-03-23T16:10:23.789Z,3.30
2023-03-23T16:13:11.062Z,2.60
2023-03-23T16:15:58.076Z,3.10
2023-03-23T16:18:45.923Z,4.30
2023-03-23T16:21:33.160Z,4.00
2023-03-23T16:24:20.360Z,4.10
2023-03-23T16:27:09.438Z,4.20
2023-03-23T16:30:03.620Z,4.30
2023-03-23T16:32:54.179Z,4.20
2023-03-23T16:35:43.639Z,3.30
2023-03-23T16:38:30.383Z,3.60
2023-03-23T16:41:17.303Z,3.50
2023-03-23T16:44:04.414Z,3.90
2023-03-23T16:46:51.093Z,3.40
2023-03-23T16:49:37.838Z,3.20
2023-03-23T16:52:24.952Z,3.40
2023-03-23T16:55:13.466Z,3.40
2023-03-23T16:58:15.483Z,4.40
2023-03-23T17:01:04.639Z,3.80
2023-03-23T17:03:51.366Z,3.20
2023-03-23T17:06:38.670Z,3.70
2023-03-23T17:09:29.165Z,3.80
2023-03-23T17:12:16.700Z,4.30
2023-03-23T17:15:04.422Z,4.00
2023-03-23T17:17:52.335Z,3.90
2023-03-23T17:20:39.274Z,4.50
2023-03-23T17:23:26.261Z,4.10
2023-03-23T17:26:13.316Z,4.30
2023-03-23T17:29:00.292Z,4.40
2023-03-23T17:31:47.126Z,3.50
2023-03-23T17:34:34.045Z,4.60
2023-03-23T17:37:21.871Z,4.10
2023-03-23T17:40:10.410Z,4.50
2023-03-23T17:42:57.652Z,4.40
2023-03-23T17:45:46.544Z,4.80
2023-03-23T17:48:34.047Z,4.40
2023-03-23T17:51:21.161Z,4.00
2023-03-23T17:54:08.148Z,4.70
2023-03-23T17:56:57.982Z,4.10
2023-03-23T17:59:45.080Z,4.20
2023-03-23T18:02:32.250Z,3.80
2023-03-23T18:05:19.418Z,4.00
2023-03-23T18:08:07.562Z,5.00
2023-03-23T18:10:56.830Z,4.40
2023-03-23T18:13:44.051Z,4.80
2023-03-23T18:16:31.244Z,4.70
2023-03-23T18:19:18.400Z,4.40
2023-03-23T18:22:05.098Z,5.30
2023-03-23T18:24:52.620Z,4.10
2023-03-23T18:27:39.646Z,5.40
2023-03-23T18:30:29.422Z,3.60
2023-03-23T18:33:19.079Z,4.40
2023-03-23T18:36:08.192Z,5.00
2023-03-23T18:38:58.841Z,4.20
2023-03-23T18:41:46.065Z,4.60
2023-03-23T18:44:32.998Z,4.90
2023-03-23T18:47:21.574Z,4.60
2023-03-23T18:50:10.888Z,4.90
2023-03-23T18:52:57.919Z,4.90
2023-03-23T18:55:45.811Z,4.30
2023-03-23T18:58:33.000Z,5.20
2023-03-23T19:01:20.741Z,4.90
2023-03-23T19:04:08.034Z,5.20
2023-03-23T19:06:55.180Z,5.30
2023-03-23T19:09:43.936Z,5.40
2023-03-23T19:12:32.074Z,5.30
2023-03-23T19:15:19.302Z,5.40
2023-03-23T19:18:06.632Z,5.00
2023-03-23T19:21:13.525Z,5.60
2023-03-23T19:24:02.468Z,5.80
2023-03-23T19:26:49.357Z,5.30
2023-03-23T19:29:36.166Z,6.10
2023-03-23T19:32:23.516Z,5.50
2023-03-23T19:35:12.369Z,5.00
2023-03-23T19:37:59.397Z,5.00
2023-03-23T19:40:52.286Z,5.00
2023-03-23T19:43:43.353Z,5.30
2023-03-23T19:46:31.462Z,5.20
2023-03-23T19:49:18.516Z,5.00
2023-03-23T19:52:12.765Z,5.80
2023-03-23T19:55:01.340Z,5.20
2023-03-23T19:57:50.714Z,4.60
2023-03-23T20:00:38.346Z,5.50
2023-03-23T20:03:26.051Z,5.00
2023-03-23T20:06:15.411Z,4.20
2023-03-23T20:09:05.118Z,5.10
2023-03-23T20:11:51.938Z,4.60
2023-03-23T20:14:44.393Z,4.50
2023-03-23T20:17:33.245Z,5.90
2023-03-23T20:20:20.452Z,5.70
2023-03-23T20:23:08.807Z,4.60
2023-03-23T20:26:08.424Z,5.80
2023-03-23T20:28:55.817Z,5.20
2023-03-23T20:31:42.783Z,5.50
2023-03-23T20:34:29.585Z,4.90
2023-03-23T20:37:20.915Z,5.70
2023-03-23T20:40:14.373Z,5.60
2023-03-23T20:43:03.811Z,5.80
2023-03-23T20:45:50.642Z,6.00
2023-03-23T20:48:40.252Z,5.70
2023-03-23T20:51:28.076Z,6.10
2023-03-23T20:54:16.902Z,5.40
2023-03-23T20:57:04.059Z,4.80
2023-03-23T20:59:52.507Z,5.60
2023-03-23T21:02:39.675Z,6.00
2023-03-23T21:05:26.508Z,5.70
2023-03-23T21:08:13.727Z,5.20
2023-03-23T21:11:00.602Z,5.30
2023-03-23T21:13:47.574Z,5.70
2023-03-23T21:16:35.087Z,6.10
2023-03-23T21:19:22.312Z,5.30
2023-03-23T21:22:10.451Z,6.00
2023-03-23T21:24:56.951Z,4.90
2023-03-23T21:27:43.866Z,5.00
2023-03-23T21:30:31.692Z,4.50
2023-03-23T21:33:20.127Z,5.40
2023-03-23T21:36:08.279Z,5.60
2023-03-23T21:38:56.159Z,5.60
2023-03-23T21:41:43.443Z,5.80
2023-03-23T21:44:30.153Z,5.40
2023-03-23T21:47:18.158Z,5.30
2023-03-23T21:50:07.258Z,5.80
2023-03-23T21:52:54.266Z,5.90
2023-03-23T21:55:45.087Z,5.40
2023-03-23T21:58:32.201Z,5.30
2023-03-23T22:01:19.526Z,5.00
2023-03-23T22:04:07.724Z,5.60
2023-03-23T22:06:54.577Z,5.20
2023-03-23T22:09:45.082Z,5.40
2023-03-23T22:12:31.990Z,6.20
2023-03-23T22:15:19.316Z,6.20
2023-03-23T22:18:06.648Z,5.50
2023-03-23T22:20:54.356Z,5.60
2023-03-23T22:23:42.991Z,5.50
2023-03-23T22:26:30.727Z,5.50
2023-03-23T22:29:17.408Z,6.00
2023-03-23T22:32:04.862Z,5.80
2023-03-23T22:34:52.115Z,4.70
2023-03-23T22:37:39.224Z,5.20
2023-03-23T22:40:25.945Z,5.60
2023-03-23T22:43:12.951Z,5.50
2023-03-23T22:46:00.127Z,5.70
2023-03-23T22:48:47.067Z,5.20
2023-03-23T22:51:33.866Z,5.50
2023-03-23T22:54:21.032Z,5.60
2023-03-23T22:57:07.755Z,5.90
2023-03-23T22:59:54.756Z,5.50
2023-03-23T23:02:43.271Z,5.90
2023-03-23T23:05:30.002Z,5.10
2023-03-23T23:08:18.046Z,5.20
2023-03-23T23:11:06.105Z,5.30
2023-03-23T23:13:53.687Z,6.40
2023-03-23T23:16:41.467Z,6.80
2023-03-23T23:19:28.365Z,5.80
2023-03-23T23:22:19.256Z,5.40
2023-03-23T23:25:07.834Z,5.80
2023-03-23T23:27:56.283Z,6.20
2023-03-23T23:30:43.427Z,5.10
2023-03-23T23:33:31.021Z,5.80
2023-03-23T23:36:18.554Z,5.00
2023-03-23T23:39:07.938Z,5.60
2023-03-23T23:41:55.962Z,5.30
2023-03-23T23:44:45.419Z,6.60
2023-03-23T23:47:32.675Z,5.30
2023-03-23T23:50:20.403Z,5.60
2023-03-23T23:53:09.938Z,5.20
2023-03-23T23:55:57.098Z,6.00
2023-03-23T23:58:44.050Z,5.70
